createdAt,value
2018-12-17T00:00:48.151Z,7.60
2018-12-17T00:03:14.145Z,6.83
2018-12-17T00:05:41.862Z,8.03
2018-12-17T00:08:06.910Z,6.43
2018-12-17T00:10:34.283Z,6.67
2018-12-17T00:12:59.670Z,7.37
2018-12-17T00:15:26.377Z,8.67
2018-12-17T00:17:52.380Z,7.03
2018-12-17T00:20:18.342Z,6.77
2018-12-17T00:22:45.087Z,8.43
2018-12-17T00:25:11.814Z,7.90
2018-12-17T00:27:37.813Z,6.57
2018-12-17T00:30:03.765Z,6.20
2018-12-17T00:32:29.766Z,7.00
2018-12-17T00:34:55.773Z,5.97
2018-12-17T00:37:21.761Z,6.77
2018-12-17T00:39:47.750Z,7.37
2018-12-17T00:42:14.481Z,7.53
2018-12-17T00:44:40.492Z,6.90
2018-12-17T00:47:06.472Z,6.47
2018-12-17T00:49:32.509Z,6.47
2018-12-17T00:51:58.484Z,6.17
2018-12-17T00:54:24.463Z,5.83
2018-12-17T00:56:50.442Z,6.40
2018-12-17T00:59:17.181Z,6.33
2018-12-17T01:01:43.912Z,8.00
2018-12-17T01:04:09.859Z,7.67
2018-12-17T01:06:36.599Z,6.63
2018-12-17T01:09:03.290Z,7.13
2018-12-17T01:11:29.288Z,7.37
2018-12-17T01:13:55.253Z,6.33
2018-12-17T01:16:21.237Z,6.53
2018-12-17T01:18:47.209Z,8.43
2018-12-17T01:21:13.942Z,7.03
2018-12-17T01:23:39.902Z,7.93
2018-12-17T01:26:06.607Z,7.00
2018-12-17T01:28:32.591Z,6.97
2018-12-17T01:30:58.577Z,7.10
2018-12-17T01:33:25.295Z,6.90
2018-12-17T01:35:51.267Z,7.07
2018-12-17T01:38:17.292Z,6.60
2018-12-17T01:40:43.271Z,6.73
2018-12-17T01:43:09.249Z,7.20
2018-12-17T01:45:35.220Z,7.27
2018-12-17T01:48:01.213Z,7.97
2018-12-17T01:50:27.171Z,7.27
2018-12-17T01:52:53.887Z,7.37
2018-12-17T01:55:19.851Z,8.00
2018-12-17T01:57:45.840Z,7.67
2018-12-17T02:00:11.808Z,6.47
2018-12-17T02:02:37.801Z,8.00
2018-12-17T02:05:04.537Z,7.03
2018-12-17T02:07:31.258Z,7.00
2018-12-17T02:09:57.256Z,6.77
2018-12-17T02:12:23.243Z,6.40
2018-12-17T02:14:49.246Z,6.77
2018-12-17T02:17:15.943Z,6.10
2018-12-17T02:19:41.939Z,7.80
2018-12-17T02:22:07.895Z,6.03
2018-12-17T02:24:33.872Z,6.10
2018-12-17T02:26:59.845Z,8.00
2018-12-17T02:29:25.848Z,7.10
2018-12-17T02:31:51.859Z,5.93
2018-12-17T02:34:17.847Z,5.90
2018-12-17T02:36:44.560Z,7.13
2018-12-17T02:39:10.564Z,5.50
2018-12-17T02:41:36.542Z,6.50
2018-12-17T02:44:03.295Z,7.77
2018-12-17T02:46:30.021Z,6.47
2018-12-17T02:48:55.987Z,6.43
2018-12-17T02:51:21.962Z,7.47
2018-12-17T02:53:48.705Z,6.73
2018-12-17T02:56:15.432Z,6.97
2018-12-17T02:58:44.097Z,6.83
2018-12-17T03:01:08.181Z,7.10
2018-12-17T03:03:34.185Z,6.17
2018-12-17T03:06:00.152Z,6.87
2018-12-17T03:08:26.139Z,7.87
2018-12-17T03:10:52.913Z,7.67
2018-12-17T03:13:18.854Z,7.43
2018-12-17T03:15:45.579Z,8.30
2018-12-17T03:18:12.293Z,6.40
2018-12-17T03:20:38.287Z,7.27
2018-12-17T03:23:04.253Z,6.17
2018-12-17T03:25:30.255Z,7.27
2018-12-17T03:27:56.228Z,6.97
2018-12-17T03:30:22.231Z,6.80
2018-12-17T03:32:48.945Z,7.53
2018-12-17T03:35:14.945Z,7.50
2018-12-17T03:37:40.915Z,7.17
2018-12-17T03:40:06.895Z,7.30
2018-12-17T03:42:32.925Z,7.60
2018-12-17T03:44:58.912Z,6.53
2018-12-17T03:47:24.876Z,7.03
2018-12-17T03:49:50.861Z,7.50
2018-12-17T03:52:16.840Z,7.77
2018-12-17T03:54:42.835Z,7.00
2018-12-17T03:57:08.800Z,7.90
2018-12-17T03:59:35.500Z,6.80
2018-12-17T04:02:01.495Z,6.73
2018-12-17T04:04:27.469Z,6.70
2018-12-17T04:06:53.452Z,6.63
2018-12-17T04:09:19.439Z,6.17
2018-12-17T04:11:46.162Z,6.37
2018-12-17T04:14:12.118Z,6.30
2018-12-17T04:16:38.122Z,7.60
2018-12-17T04:19:04.834Z,5.93
2018-12-17T04:21:30.804Z,7.10
2018-12-17T04:23:56.775Z,6.30
2018-12-17T04:26:22.779Z,7.40
2018-12-17T04:28:48.741Z,6.57
2018-12-17T04:31:14.697Z,6.33
2018-12-17T04:33:40.714Z,6.03
2018-12-17T04:36:06.695Z,7.37
2018-12-17T04:38:32.759Z,6.33
2018-12-17T04:40:59.448Z,6.20
2018-12-17T04:43:25.438Z,6.77
2018-12-17T04:45:51.401Z,6.47
2018-12-17T04:48:17.393Z,7.17
2018-12-17T04:50:43.416Z,7.13
2018-12-17T04:53:09.376Z,6.80
2018-12-17T04:55:35.339Z,6.43
2018-12-17T04:58:01.385Z,6.87
2018-12-17T05:00:27.344Z,6.90
2018-12-17T05:02:53.336Z,5.83
2018-12-17T05:05:19.309Z,6.20
2018-12-17T05:07:46.043Z,6.87
2018-12-17T05:10:12.756Z,6.77
2018-12-17T05:12:38.779Z,7.47
2018-12-17T05:15:04.752Z,7.20
2018-12-17T05:17:31.476Z,7.00
2018-12-17T05:19:57.519Z,7.00
2018-12-17T05:22:23.532Z,6.70
2018-12-17T05:24:49.502Z,6.87
2018-12-17T05:27:15.493Z,6.73
2018-12-17T05:29:41.497Z,8.13
2018-12-17T05:32:08.255Z,7.70
2018-12-17T05:34:34.243Z,7.13
2018-12-17T05:37:00.971Z,7.60
2018-12-17T05:39:26.961Z,7.07
2018-12-17T05:41:52.932Z,8.00
2018-12-17T05:44:18.978Z,7.67
2018-12-17T05:46:45.687Z,8.53
2018-12-17T05:49:11.706Z,9.53
2018-12-17T05:51:37.742Z,7.87
2018-12-17T05:54:03.749Z,8.33
2018-12-17T05:56:29.719Z,8.53
2018-12-17T05:58:55.720Z,7.57
2018-12-17T06:01:22.416Z,6.53
2018-12-17T06:03:49.122Z,7.17
2018-12-17T06:06:15.848Z,7.30
2018-12-17T06:08:42.549Z,6.90
2018-12-17T06:11:08.597Z,8.93
2018-12-17T06:13:34.552Z,8.93
2018-12-17T06:16:00.552Z,8.67
2018-12-17T06:18:27.261Z,8.87
2018-12-17T06:20:53.262Z,8.37
2018-12-17T06:23:19.218Z,7.40
2018-12-17T06:25:45.221Z,7.47
2018-12-17T06:28:11.189Z,8.10
2018-12-17T06:30:37.929Z,8.70
2018-12-17T06:33:03.876Z,8.17
2018-12-17T06:35:29.835Z,7.60
2018-12-17T06:37:55.810Z,8.20
2018-12-17T06:40:22.505Z,9.63
2018-12-17T06:42:48.495Z,8.73
2018-12-17T06:45:14.513Z,9.17
2018-12-17T06:47:40.519Z,9.17
2018-12-17T06:50:06.504Z,8.07
2018-12-17T06:52:32.492Z,8.23
2018-12-17T06:54:58.514Z,9.43
2018-12-17T06:57:24.502Z,8.70
2018-12-17T06:59:51.199Z,7.17
2018-12-17T07:02:17.188Z,7.57
2018-12-17T07:04:43.144Z,8.17
2018-12-17T07:07:09.118Z,9.40
2018-12-17T07:09:35.157Z,8.63
2018-12-17T07:12:01.173Z,8.23
2018-12-17T07:14:27.166Z,8.63
2018-12-17T07:16:53.305Z,9.37
2018-12-17T07:19:19.335Z,8.13
2018-12-17T07:21:45.308Z,9.67
2018-12-17T07:24:11.290Z,9.03
2018-12-17T07:26:37.258Z,8.80
2018-12-17T07:29:03.245Z,9.93
2018-12-17T07:31:29.217Z,9.40
2018-12-17T07:33:55.211Z,9.73
2018-12-17T07:36:21.170Z,9.87
2018-12-17T07:38:47.153Z,10.50
2018-12-17T07:41:13.111Z,9.23
2018-12-17T07:43:39.114Z,9.33
2018-12-17T07:46:05.075Z,10.30
2018-12-17T07:48:31.764Z,11.40
2018-12-17T07:50:57.743Z,9.70
2018-12-17T07:53:24.439Z,10.70
2018-12-17T07:55:50.424Z,10.10
2018-12-17T07:58:16.389Z,9.83
2018-12-17T08:00:42.384Z,8.53
2018-12-17T08:03:08.355Z,10.20
2018-12-17T08:05:35.098Z,9.33
2018-12-17T08:08:01.058Z,9.63
2018-12-17T08:10:27.065Z,8.10
2018-12-17T08:12:53.036Z,10.37
2018-12-17T08:15:19.037Z,9.27
2018-12-17T08:17:45.003Z,9.93
2018-12-17T08:20:10.985Z,9.17
2018-12-17T08:22:36.948Z,8.37
2018-12-17T08:25:02.926Z,8.73
2018-12-17T08:27:28.905Z,9.67
2018-12-17T08:29:55.620Z,11.30
2018-12-17T08:32:21.605Z,9.90
2018-12-17T08:34:47.563Z,9.20
2018-12-17T08:37:13.585Z,9.47
2018-12-17T08:39:39.540Z,9.77
2018-12-17T08:42:05.516Z,8.53
2018-12-17T08:44:31.490Z,9.90
2018-12-17T08:46:58.214Z,8.90
2018-12-17T08:49:24.171Z,10.13
2018-12-17T08:51:50.168Z,9.70
2018-12-17T08:54:16.901Z,9.53
2018-12-17T08:56:42.893Z,9.03
2018-12-17T08:59:08.861Z,9.63
2018-12-17T09:01:35.617Z,9.33
2018-12-17T09:04:01.593Z,9.77
2018-12-17T09:06:27.624Z,9.00
2018-12-17T09:08:54.378Z,9.93
2018-12-17T09:11:21.089Z,9.70
2018-12-17T09:13:47.070Z,8.60
2018-12-17T09:16:13.054Z,8.90
2018-12-17T09:18:39.074Z,11.17
2018-12-17T09:21:05.096Z,8.73
2018-12-17T09:23:31.137Z,9.17
2018-12-17T09:25:57.846Z,10.07
2018-12-17T09:28:23.822Z,8.93
2018-12-17T09:30:49.810Z,11.20
2018-12-17T09:33:15.806Z,10.53
2018-12-17T09:35:41.746Z,9.23
2018-12-17T09:38:07.729Z,8.60
2018-12-17T09:40:33.691Z,10.27
2018-12-17T09:42:59.655Z,10.30
2018-12-17T09:45:26.372Z,8.77
2018-12-17T09:47:52.316Z,11.33
2018-12-17T09:50:18.316Z,8.67
2018-12-17T09:52:45.030Z,9.13
2018-12-17T09:55:11.015Z,10.37
2018-12-17T09:57:36.958Z,9.17
2018-12-17T10:00:02.937Z,8.50
2018-12-17T10:02:29.641Z,10.40
2018-12-17T10:04:55.605Z,8.80
2018-12-17T10:07:22.291Z,9.77
2018-12-17T10:09:48.266Z,9.47
2018-12-17T10:12:14.956Z,9.07
2018-12-17T10:14:41.729Z,9.10
2018-12-17T10:17:07.681Z,9.27
2018-12-17T10:19:34.383Z,10.47
2018-12-17T10:22:00.369Z,9.37
2018-12-17T10:24:26.315Z,8.63
2018-12-17T10:26:52.341Z,9.83
2018-12-17T10:29:19.090Z,8.97
2018-12-17T10:31:45.190Z,9.47
2018-12-17T10:34:11.159Z,8.97
2018-12-17T10:36:37.875Z,9.10
2018-12-17T10:39:03.804Z,9.13
2018-12-17T10:41:29.784Z,9.57
2018-12-17T10:43:55.769Z,9.17
2018-12-17T10:46:22.474Z,9.17
2018-12-17T10:48:48.425Z,10.67
2018-12-17T10:51:14.402Z,9.40
2018-12-17T10:53:40.380Z,10.13
2018-12-17T10:56:07.138Z,8.87
2018-12-17T10:58:33.870Z,8.73
2018-12-17T11:01:00.564Z,9.50
2018-12-17T11:03:26.554Z,9.10
2018-12-17T11:05:52.490Z,8.07
2018-12-17T11:08:18.474Z,8.73
2018-12-17T11:10:45.163Z,9.37
2018-12-17T11:13:11.150Z,9.20
2018-12-17T11:15:37.135Z,8.40
2018-12-17T11:18:03.127Z,8.87
2018-12-17T11:20:29.085Z,8.33
2018-12-17T11:22:55.089Z,8.53
2018-12-17T11:25:21.838Z,8.97
2018-12-17T11:27:47.828Z,7.30
2018-12-17T11:30:13.792Z,9.73
2018-12-17T11:32:39.756Z,9.00
2018-12-17T11:35:05.746Z,8.47
2018-12-17T11:37:32.441Z,7.77
2018-12-17T11:39:58.423Z,7.53
2018-12-17T11:42:25.137Z,8.53
2018-12-17T11:44:51.119Z,8.03
2018-12-17T11:47:17.085Z,8.20
2018-12-17T11:49:43.071Z,8.77
2018-12-17T11:52:09.037Z,7.87
2018-12-17T11:54:35.775Z,8.90
2018-12-17T11:57:01.776Z,7.57
2018-12-17T11:59:27.739Z,8.30
2018-12-17T12:01:54.455Z,9.50
2018-12-17T12:04:20.419Z,8.37
2018-12-17T12:06:46.414Z,7.53
2018-12-17T12:09:13.115Z,8.80
2018-12-17T12:11:39.112Z,8.30
2018-12-17T12:14:05.068Z,7.40
2018-12-17T12:16:31.820Z,7.97
2018-12-17T12:18:57.788Z,7.00
2018-12-17T12:21:23.774Z,8.93
2018-12-17T12:23:49.730Z,8.10
2018-12-17T12:26:15.711Z,7.60
2018-12-17T12:28:41.669Z,7.43
2018-12-17T12:31:08.384Z,7.77
2018-12-17T12:33:34.323Z,7.77
2018-12-17T12:36:01.035Z,8.20
2018-12-17T12:38:27.001Z,7.60
2018-12-17T12:40:52.992Z,7.30
2018-12-17T12:43:18.963Z,7.43
2018-12-17T12:45:44.950Z,7.93
2018-12-17T12:48:11.667Z,7.73
2018-12-17T12:50:37.609Z,7.93
2018-12-17T12:53:04.323Z,7.90
2018-12-17T12:55:30.288Z,8.03
2018-12-17T12:58:03.378Z,7.77
2018-12-17T13:00:22.289Z,7.93
2018-12-17T13:02:48.999Z,7.90
2018-12-17T13:05:14.945Z,8.40
2018-12-17T13:07:40.930Z,8.20
2018-12-17T13:10:06.893Z,8.30
2018-12-17T13:12:32.933Z,7.97
2018-12-17T13:14:58.905Z,7.70
2018-12-17T13:17:24.880Z,7.97
2018-12-17T13:19:50.827Z,7.70
2018-12-17T13:22:16.816Z,8.30
2018-12-17T13:24:42.774Z,7.73
2018-12-17T13:27:08.820Z,7.17
2018-12-17T13:29:34.783Z,8.63
2018-12-17T13:32:00.759Z,9.40
2018-12-17T13:34:26.722Z,9.43
2018-12-17T13:36:52.707Z,7.93
2018-12-17T13:39:18.665Z,9.43
2018-12-17T13:41:44.618Z,9.20
2018-12-17T13:44:10.562Z,7.93
2018-12-17T13:46:36.524Z,8.27
2018-12-17T13:49:02.507Z,8.30
2018-12-17T13:51:28.453Z,7.60
2018-12-17T13:53:54.464Z,8.37
2018-12-17T13:56:20.426Z,7.97
2018-12-17T13:58:46.408Z,8.87
2018-12-17T14:01:12.349Z,8.83
2018-12-17T14:03:38.339Z,8.33
2018-12-17T14:06:04.325Z,8.17
2018-12-17T14:08:30.331Z,8.20
2018-12-17T14:10:56.299Z,8.53
2018-12-17T14:13:23.029Z,8.53
2018-12-17T14:15:49.737Z,8.73
2018-12-17T14:18:16.528Z,8.77
2018-12-17T14:20:42.474Z,9.17
2018-12-17T14:23:08.451Z,8.50
2018-12-17T14:25:35.159Z,8.67
2018-12-17T14:28:01.123Z,7.40
2018-12-17T14:30:27.848Z,8.80
2018-12-17T14:32:53.818Z,8.37
2018-12-17T14:35:19.820Z,8.57
2018-12-17T14:37:46.506Z,9.03
2018-12-17T14:40:12.481Z,8.77
2018-12-17T14:42:39.166Z,10.23
2018-12-17T14:45:05.160Z,9.40
2018-12-17T14:47:31.144Z,8.33
2018-12-17T14:49:57.884Z,9.87
2018-12-17T14:52:24.591Z,7.83
2018-12-17T14:54:50.571Z,8.93
2018-12-17T14:57:16.530Z,8.63
2018-12-17T14:59:42.507Z,8.77
2018-12-17T15:02:09.236Z,7.90
2018-12-17T15:04:35.198Z,9.07
2018-12-17T15:07:01.172Z,8.80
2018-12-17T15:09:27.117Z,8.57
2018-12-17T15:11:53.823Z,7.50
2018-12-17T15:14:19.762Z,8.83
2018-12-17T15:16:45.729Z,8.63
2018-12-17T15:19:11.691Z,8.50
2018-12-17T15:21:37.662Z,8.57
2018-12-17T15:24:03.628Z,8.90
2018-12-17T15:26:29.644Z,9.13
2018-12-17T15:28:55.622Z,9.43
2018-12-17T15:31:21.613Z,8.43
2018-12-17T15:33:47.592Z,9.10
2018-12-17T15:36:13.576Z,9.07
2018-12-17T15:38:39.594Z,8.53
2018-12-17T15:41:05.587Z,9.17
2018-12-17T15:43:31.556Z,8.90
2018-12-17T15:45:58.297Z,8.90
2018-12-17T15:48:25.010Z,8.93
2018-12-17T15:50:51.007Z,9.33
2018-12-17T15:53:16.984Z,9.23
2018-12-17T15:55:42.981Z,8.80
2018-12-17T15:58:08.936Z,8.27
2018-12-17T16:00:34.938Z,8.77
2018-12-17T16:03:01.627Z,8.93
2018-12-17T16:05:27.617Z,10.20
2018-12-17T16:07:54.312Z,8.33
2018-12-17T16:10:20.328Z,8.77
2018-12-17T16:12:46.287Z,8.70
2018-12-17T16:15:12.985Z,9.17
2018-12-17T16:17:38.979Z,9.57
2018-12-17T16:20:05.123Z,8.57
2018-12-17T16:22:31.331Z,9.17
2018-12-17T16:24:57.298Z,8.37
2018-12-17T16:27:23.332Z,8.57
2018-12-17T16:29:49.622Z,7.97
2018-12-17T16:32:16.536Z,8.37
2018-12-17T16:34:43.224Z,7.30
2018-12-17T16:37:09.216Z,7.13
2018-12-17T16:39:35.175Z,6.70
2018-12-17T16:42:01.148Z,5.47
2018-12-17T16:44:27.116Z,6.33
2018-12-17T16:46:53.123Z,6.80
2018-12-17T16:49:19.101Z,7.00
2018-12-17T16:51:45.834Z,7.70
2018-12-17T16:54:12.528Z,6.30
2018-12-17T16:56:38.523Z,6.73
2018-12-17T16:59:04.490Z,6.67
2018-12-17T17:01:30.474Z,6.63
2018-12-17T17:03:56.447Z,6.37
2018-12-17T17:06:22.444Z,6.30
2018-12-17T17:08:48.433Z,6.07
2018-12-17T17:11:14.430Z,7.43
2018-12-17T17:13:40.386Z,6.23
2018-12-17T17:16:06.352Z,7.10
2018-12-17T17:18:32.299Z,6.50
2018-12-17T17:20:58.266Z,7.20
2018-12-17T17:23:24.215Z,7.13
2018-12-17T17:25:50.213Z,6.07
2018-12-17T17:28:16.171Z,6.33
2018-12-17T17:30:42.119Z,7.00
2018-12-17T17:33:08.827Z,6.20
2018-12-17T17:35:34.772Z,6.50
2018-12-17T17:38:00.741Z,6.13
2018-12-17T17:40:26.681Z,7.20
2018-12-17T17:42:52.705Z,6.13
2018-12-17T17:45:18.675Z,6.53
2018-12-17T17:47:45.428Z,6.20
2018-12-17T17:50:12.127Z,6.37
2018-12-17T17:52:38.121Z,6.77
2018-12-17T17:55:04.097Z,6.40
2018-12-17T17:57:30.071Z,5.13
2018-12-17T17:59:56.031Z,6.00
2018-12-17T18:02:22.024Z,5.60
2018-12-17T18:04:47.987Z,4.93
2018-12-17T18:07:14.744Z,6.33
2018-12-17T18:09:40.715Z,5.93
2018-12-17T18:12:06.698Z,6.20
2018-12-17T18:14:32.652Z,4.97
2018-12-17T18:16:58.656Z,5.43
2018-12-17T18:19:24.628Z,6.70
2018-12-17T18:21:50.642Z,5.53
2018-12-17T18:24:16.612Z,5.73
2018-12-17T18:26:42.600Z,6.87
2018-12-17T18:29:08.575Z,5.97
2018-12-17T18:31:34.546Z,5.17
2018-12-17T18:34:00.504Z,6.13
2018-12-17T18:36:26.451Z,5.00
2018-12-17T18:38:52.427Z,5.20
2018-12-17T18:41:19.134Z,6.10
2018-12-17T18:43:45.130Z,5.60
2018-12-17T18:46:11.089Z,5.10
2018-12-17T18:48:37.073Z,5.67
2018-12-17T18:51:03.030Z,6.00
2018-12-17T18:53:29.000Z,5.80
2018-12-17T18:55:54.953Z,6.43
2018-12-17T18:58:20.928Z,5.63
2018-12-17T19:00:47.609Z,6.13
2018-12-17T19:03:13.603Z,5.17
2018-12-17T19:05:39.633Z,5.90
2018-12-17T19:08:05.621Z,4.80
2018-12-17T19:10:31.605Z,5.07
2018-12-17T19:12:57.597Z,5.67
2018-12-17T19:15:23.549Z,6.03
2018-12-17T19:17:49.526Z,5.83
2018-12-17T19:20:16.249Z,5.30
2018-12-17T19:22:42.244Z,5.63
2018-12-17T19:25:08.225Z,4.87
2018-12-17T19:27:34.962Z,5.40
2018-12-17T19:30:00.914Z,5.83
2018-12-17T19:32:26.893Z,5.83
2018-12-17T19:34:53.627Z,5.43
2018-12-17T19:37:19.602Z,5.67
2018-12-17T19:39:45.562Z,6.03
2018-12-17T19:42:11.539Z,6.37
2018-12-17T19:44:37.494Z,5.43
2018-12-17T19:47:03.446Z,5.63
2018-12-17T19:49:30.150Z,5.73
2018-12-17T19:51:56.114Z,5.50
2018-12-17T19:54:22.849Z,6.57
2018-12-17T19:56:49.572Z,5.60
2018-12-17T19:59:15.591Z,5.93
2018-12-17T20:01:41.559Z,5.63
2018-12-17T20:04:07.545Z,5.70
2018-12-17T20:06:33.495Z,5.87
2018-12-17T20:08:59.502Z,4.97
2018-12-17T20:11:26.203Z,5.43
2018-12-17T20:13:52.188Z,4.97
2018-12-17T20:16:18.172Z,5.87
2018-12-17T20:18:44.153Z,5.00
2018-12-17T20:21:10.110Z,5.23
2018-12-17T20:23:36.114Z,6.00
2018-12-17T20:26:02.067Z,4.70
2018-12-17T20:28:28.054Z,5.00
2018-12-17T20:30:53.995Z,4.20
2018-12-17T20:33:19.976Z,5.40
2018-12-17T20:35:45.908Z,4.80
2018-12-17T20:38:11.876Z,5.07
2018-12-17T20:40:37.827Z,4.87
2018-12-17T20:43:04.557Z,5.03
2018-12-17T20:45:31.261Z,5.40
2018-12-17T20:47:57.251Z,5.23
2018-12-17T20:50:23.207Z,5.53
2018-12-17T20:52:49.196Z,5.33
2018-12-17T20:55:15.199Z,4.87
2018-12-17T20:57:41.173Z,5.20
2018-12-17T21:00:07.174Z,5.10
2018-12-17T21:02:33.158Z,5.60
2018-12-17T21:04:59.876Z,5.40
2018-12-17T21:07:25.828Z,4.73
2018-12-17T21:09:52.557Z,4.77
2018-12-17T21:12:19.275Z,3.83
2018-12-17T21:14:45.304Z,5.00
2018-12-17T21:17:11.269Z,5.20
2018-12-17T21:19:44.216Z,4.50
2018-12-17T21:22:10.173Z,5.20
2018-12-17T21:24:36.158Z,5.37
2018-12-17T21:27:02.159Z,4.40
2018-12-17T21:29:28.162Z,5.13
2018-12-17T21:31:54.117Z,4.40
2018-12-17T21:34:20.116Z,5.40
2018-12-17T21:36:46.070Z,4.67
2018-12-17T21:39:12.044Z,5.63
2018-12-17T21:41:38.024Z,5.30
2018-12-17T21:44:04.010Z,5.23
2018-12-17T21:46:29.953Z,6.00
2018-12-17T21:48:56.061Z,5.07
2018-12-17T21:51:22.120Z,6.23
2018-12-17T21:53:48.876Z,5.80
2018-12-17T21:56:15.584Z,7.10
2018-12-17T21:58:41.572Z,6.50
2018-12-17T22:01:07.656Z,6.77
2018-12-17T22:03:33.696Z,7.50
2018-12-17T22:05:59.884Z,7.53
2018-12-17T22:08:25.940Z,7.53
2018-12-17T22:10:51.966Z,7.53
2018-12-17T22:13:17.964Z,7.97
2018-12-17T22:15:43.943Z,8.67
2018-12-17T22:18:09.928Z,8.80
2018-12-17T22:20:36.662Z,8.73
2018-12-17T22:23:03.379Z,9.03
2018-12-17T22:25:29.357Z,8.10
2018-12-17T22:27:55.314Z,9.13
2018-12-17T22:30:21.301Z,9.63
2018-12-17T22:32:47.279Z,9.90
2018-12-17T22:35:13.306Z,9.07
2018-12-17T22:37:39.280Z,9.47
2018-12-17T22:40:05.316Z,10.37
2018-12-17T22:42:31.290Z,9.17
2018-12-17T22:44:58.019Z,9.10
2018-12-17T22:47:23.972Z,9.80
2018-12-17T22:49:49.981Z,8.00
2018-12-17T22:52:16.750Z,9.10
2018-12-17T22:54:42.729Z,9.20
2018-12-17T22:57:09.471Z,8.60
2018-12-17T22:59:36.163Z,9.33
2018-12-17T23:02:02.179Z,8.33
2018-12-17T23:04:28.184Z,8.60
2018-12-17T23:06:54.159Z,8.80
2018-12-17T23:09:20.137Z,8.63
2018-12-17T23:11:46.131Z,8.57
2018-12-17T23:14:12.825Z,8.03
2018-12-17T23:16:38.823Z,9.20
2018-12-17T23:19:04.804Z,8.30
2018-12-17T23:21:30.749Z,9.07
2018-12-17T23:23:57.471Z,8.37
2018-12-17T23:26:24.181Z,8.53
2018-12-17T23:28:50.156Z,8.53
2018-12-17T23:31:16.126Z,10.03
2018-12-17T23:33:42.121Z,9.47
2018-12-17T23:36:08.076Z,8.80
2018-12-17T23:38:34.070Z,10.17
2018-12-17T23:41:00.054Z,9.37
2018-12-17T23:43:26.781Z,10.30
2018-12-17T23:45:53.521Z,10.03
2018-12-17T23:48:19.499Z,9.60
2018-12-17T23:50:45.463Z,10.33
2018-12-17T23:53:11.438Z,10.03
2018-12-17T23:55:37.430Z,9.10
2018-12-17T23:58:04.144Z,10.73
